Time;durP1;ratioP1;P1;durP2;ratioP2;P2;SDS_P1;SDS_P2;PMS_P1;PMS_P2;Temp;Humidity;BMP_temperature;BMP_pressure;BME280_temperature;BME280_humidity;BME280_pressure;Samples;Min_cycle;Max_cycle;Signal;HPM_P1;HPM_P2
2020/12/08 00:01:53;;;;;;;5.22;3.50;;;;;;;2.55;62.27;96783.59;1793176;79;21155;-79
2020/12/08 00:04:20;;;;;;;4.25;3.12;;;;;;;2.50;62.23;96785.13;1793273;79;21155;-91
2020/12/08 00:06:48;;;;;;;4.30;2.95;;;;;;;2.50;62.38;96790.34;1793806;79;21573;-80
2020/12/08 00:09:15;;;;;;;4.42;2.87;;;;;;;2.50;62.41;96782.05;1729289;82;21122;-89
2020/12/08 00:11:47;;;;;;;3.60;2.12;;;;;;;2.49;62.38;96783.45;1724722;83;21164;-88
2020/12/08 00:14:17;;;;;;;4.78;3.02;;;;;;;2.49;62.40;96790.78;1743408;82;21116;-82
2020/12/08 00:16:45;;;;;;;6.12;3.30;;;;;;;2.48;62.46;96790.87;1724316;83;21157;-86
2020/12/08 00:19:16;;;;;;;4.75;3.27;;;;;;;2.46;62.61;96788.33;1743264;82;21175;-82
2020/12/08 00:22:04;;;;;;;4.30;2.40;;;;;;;2.54;62.67;96793.61;1758966;82;21141;-76
2020/12/08 00:24:32;;;;;;;4.37;2.75;;;;;;;2.58;62.50;96795.11;1730414;82;21139;-89
2020/12/08 00:27:00;;;;;;;3.02;2.22;;;;;;;2.55;62.66;96795.30;1758420;81;21249;-87
2020/12/08 00:29:28;;;;;;;3.40;2.55;;;;;;;2.54;62.64;96789.70;1759810;81;21242;-83
2020/12/08 00:31:55;;;;;;;4.03;2.70;;;;;;;2.54;62.50;96793.14;1759836;82;21547;-90
2020/12/08 00:34:23;;;;;;;4.47;2.85;;;;;;;2.53;62.57;96803.63;1759353;82;21261;-85
2020/12/08 00:36:54;;;;;;;3.75;2.67;;;;;;;2.55;62.55;96810.44;1726703;83;21265;-77
2020/12/08 00:39:23;;;;;;;4.05;2.83;;;;;;;2.57;62.54;96805.14;1723576;83;21300;-76
2020/12/08 00:41:59;;;;;;;4.37;3.20;;;;;;;2.54;62.56;96810.52;1723258;83;21240;-77
2020/12/08 00:44:27;;;;;;;8.15;3.80;;;;;;;2.49;62.59;96810.77;1749274;82;21181;-80
2020/12/08 00:46:54;;;;;;;5.47;3.45;;;;;;;2.41;62.75;96810.33;1752767;82;21095;-79
2020/12/08 00:49:29;;;;;;;5.37;3.67;;;;;;;2.44;62.86;96815.35;1724805;82;21136;-78
2020/12/08 00:52:05;;;;;;;5.53;2.90;;;;;;;2.46;62.80;96810.91;1757928;82;21084;-77
2020/12/08 00:54:36;;;;;;;4.40;2.60;;;;;;;2.47;62.79;96819.11;1779054;79;21234;-78
2020/12/08 00:57:05;;;;;;;6.50;3.20;;;;;;;2.46;62.89;96814.81;1757291;82;21270;-82
2020/12/08 00:59:33;;;;;;;3.40;2.08;;;;;;;2.44;62.74;96821.86;1758021;81;21226;-78
2020/12/08 01:02:01;;;;;;;6.85;3.27;;;;;;;2.44;62.82;96810.14;1755009;80;21136;-77
2020/12/08 01:04:29;;;;;;;5.08;3.30;;;;;;;2.44;62.83;96812.75;1790739;80;21301;-78
2020/12/08 01:06:57;;;;;;;5.22;3.50;;;;;;;2.39;62.95;96801.28;1790239;80;21152;-77
2020/12/08 01:09:27;;;;;;;4.40;3.17;;;;;;;2.39;62.96;96802.58;1776780;80;21209;-77
2020/12/08 01:11:54;;;;;;;4.30;3.17;;;;;;;2.45;63.03;96800.98;1729587;82;21239;-78
2020/12/08 01:14:32;;;;;;;2.15;1.62;;;;;;;2.53;62.98;96808.84;1782053;80;21474;-77
2020/12/08 01:17:07;;;;;;;3.60;2.12;;;;;;;2.54;62.73;96807.45;1790890;80;21236;-77
2020/12/08 01:19:39;;;;;;;4.22;2.60;;;;;;;2.49;62.76;96795.98;1759583;82;21276;-78
2020/12/08 01:22:13;;;;;;;4.72;3.15;;;;;;;2.45;62.51;96793.17;1759114;81;21145;-76
2020/12/08 01:24:40;;;;;;;4.53;2.02;;;;;;;2.47;62.89;96799.59;1766103;80;21068;-78
2020/12/08 01:27:10;;;;;;;3.70;2.22;;;;;;;2.50;62.75;96802.87;1754613;81;21268;-76
2020/12/08 01:29:41;;;;;;;8.38;3.10;;;;;;;2.38;62.98;96800.90;1772023;80;21297;-77
2020/12/08 01:32:10;;;;;;;5.97;3.83;;;;;;;2.29;63.40;96798.77;1728934;82;21284;-76
2020/12/08 01:34:38;;;;;;;4.85;3.02;;;;;;;2.28;63.31;96804.89;1762762;81;21265;-78
2020/12/08 01:37:08;;;;;;;4.33;2.42;;;;;;;2.31;63.15;96792.59;1769459;80;21301;-78
2020/12/08 01:39:36;;;;;;;4.83;2.67;;;;;;;2.37;63.10;96796.61;1763286;81;21242;-90
2020/12/08 01:42:03;;;;;;;7.58;3.35;;;;;;;2.34;63.27;96799.39;1763580;81;21119;-90
2020/12/08 01:44:33;;;;;;;4.10;2.70;;;;;;;2.29;63.49;96803.97;1763592;81;21130;-81
2020/12/08 01:47:03;;;;;;;4.65;2.62;;;;;;;2.30;63.30;96799.16;1766094;81;21242;-79
2020/12/08 01:49:32;;;;;;;4.45;2.90;;;;;;;2.28;62.62;96800.98;1761714;81;21276;-80
2020/12/08 01:52:03;;;;;;;3.70;2.45;;;;;;;2.32;62.80;96799.92;1761241;82;21271;-77
2020/12/08 01:54:32;;;;;;;3.62;2.40;;;;;;;2.32;62.13;96794.25;1761302;82;21143;-79
2020/12/08 01:57:17;;;;;;;5.17;2.85;;;;;;;2.37;62.33;96799.21;1761202;82;21153;-76
2020/12/08 01:59:47;;;;;;;3.95;2.70;;;;;;;2.34;62.12;96796.31;1761103;82;21170;-76
2020/12/08 02:02:20;;;;;;;3.85;2.30;;;;;;;2.38;61.74;96805.27;1764723;81;21128;-76
2020/12/08 02:04:51;;;;;;;4.70;2.10;;;;;;;2.44;62.39;96802.34;1764989;81;21118;-79
2020/12/08 02:07:18;;;;;;;3.27;1.80;;;;;;;2.46;62.41;96805.23;1761181;82;21308;-77
2020/12/08 02:09:46;;;;;;;3.77;2.42;;;;;;;2.51;62.08;96808.90;1733681;82;21176;-78
2020/12/08 02:12:22;;;;;;;4.25;2.87;;;;;;;2.55;61.88;96810.91;1765319;81;21096;-75
2020/12/08 02:14:51;;;;;;;3.75;2.37;;;;;;;2.58;62.09;96816.78;1766379;81;21142;-77
2020/12/08 02:17:20;;;;;;;4.78;2.47;;;;;;;2.64;62.25;96806.52;1733884;82;21102;-76
2020/12/08 02:19:48;;;;;;;5.53;2.55;;;;;;;2.60;62.46;96806.29;1761281;81;21278;-79
2020/12/08 02:22:20;;;;;;;4.90;2.80;;;;;;;2.57;62.64;96811.64;1766148;81;21274;-78
2020/12/08 02:24:48;;;;;;;6.78;2.92;;;;;;;2.53;62.05;96806.23;1764197;81;21163;-92
2020/12/08 02:27:20;;;;;;;4.55;2.87;;;;;;;2.54;62.53;96811.35;1765448;81;21209;-77
2020/12/08 02:29:50;;;;;;;6.90;2.35;;;;;;;2.57;62.22;96803.84;1735828;81;21290;-78
2020/12/08 02:32:20;;;;;;;3.77;2.60;;;;;;;2.62;62.19;96796.17;1765348;81;21271;-76
2020/12/08 02:34:48;;;;;;;2.87;1.90;;;;;;;2.61;61.63;96791.05;1760792;81;21236;-76
2020/12/08 02:37:20;;;;;;;3.08;1.45;;;;;;;2.62;62.09;96792.74;1763356;80;21159;-77
2020/12/08 02:39:50;;;;;;;10.15;3.02;;;;;;;2.64;61.85;96793.51;1767554;81;21135;-78
2020/12/08 02:42:27;;;;;;;3.92;2.47;;;;;;;2.64;61.44;96797.41;1767733;81;21155;-82
2020/12/08 02:44:57;;;;;;;3.62;2.40;;;;;;;2.61;61.25;96797.56;1768074;81;21243;-77
2020/12/08 02:47:26;;;;;;;3.00;2.17;;;;;;;2.59;60.82;96796.80;1765423;81;21160;-87
2020/12/08 02:49:56;;;;;;;2.92;1.98;;;;;;;2.61;61.50;96797.09;1765519;81;21572;-84
2020/12/08 02:52:24;;;;;;;3.25;2.50;;;;;;;2.58;61.13;96801.17;1737299;81;21138;-83
2020/12/08 02:54:52;;;;;;;3.37;2.10;;;;;;;2.49;60.76;96806.39;1765269;81;21163;-83
2020/12/08 02:57:35;;;;;;;3.08;2.30;;;;;;;2.51;60.93;96808.90;1767331;81;21592;-79
2020/12/08 03:00:08;;;;;;;3.40;2.15;;;;;;;2.48;60.77;96812.51;1765237;81;21222;-81
2020/12/08 03:02:35;;;;;;;3.70;2.30;;;;;;;2.46;60.78;96808.31;1765047;81;21194;-86
2020/12/08 03:05:05;;;;;;;2.72;1.72;;;;;;;2.45;60.67;96808.78;1765103;81;21143;-89
2020/12/08 03:07:37;;;;;;;7.03;2.20;;;;;;;2.45;61.38;96811.39;1739846;81;21274;-85
2020/12/08 03:10:07;;;;;;;3.70;2.30;;;;;;;2.46;60.90;96812.22;1768057;81;21240;-78
2020/12/08 03:12:37;;;;;;;3.58;1.85;;;;;;;2.47;61.29;96808.70;1767783;81;21569;-79
2020/12/08 03:15:07;;;;;;;2.45;1.70;;;;;;;2.47;61.44;96803.49;1764957;81;21549;-89
2020/12/08 03:17:38;;;;;;;2.92;2.02;;;;;;;2.53;61.48;96803.63;1767375;81;21297;-80
2020/12/08 03:20:07;;;;;;;3.22;2.15;;;;;;;2.48;61.16;96806.00;1766802;81;21102;-81
2020/12/08 03:22:36;;;;;;;4.97;2.17;;;;;;;2.52;61.10;96803.25;1766930;81;21142;-85
2020/12/08 03:25:07;;;;;;;3.80;2.50;;;;;;;2.52;61.25;96801.95;1767421;81;21253;-86
2020/12/08 03:27:36;;;;;;;5.67;2.45;;;;;;;2.56;61.46;96807.36;1767364;81;21160;-78
2020/12/08 03:30:07;;;;;;;4.95;2.12;;;;;;;2.60;61.39;96802.38;1739084;81;21105;-78
2020/12/08 03:32:42;;;;;;;5.25;2.37;;;;;;;2.58;60.68;96810.28;1767763;81;21115;-77
2020/12/08 03:35:13;;;;;;;2.92;2.00;;;;;;;2.62;61.32;96809.66;1766976;81;21118;-78
2020/12/08 03:37:42;;;;;;;3.08;1.62;;;;;;;2.63;61.10;96816.07;1769073;80;21222;-81
2020/12/08 03:40:14;;;;;;;3.02;2.08;;;;;;;2.62;60.99;96820.06;1757836;81;21171;-77
2020/12/08 03:42:41;;;;;;;6.05;2.60;;;;;;;2.53;60.80;96816.17;1771173;80;21230;-78
2020/12/08 03:45:20;;;;;;;3.92;2.50;;;;;;;2.53;61.19;96816.64;1757143;81;21116;-77
2020/12/08 03:48:04;;;;;;;4.15;2.40;;;;;;;2.60;61.29;96818.00;1840679;77;24796;-79
2020/12/08 03:50:33;;;;;;;4.40;2.17;;;;;;;2.57;61.48;96823.35;1796607;80;21134;-78
2020/12/08 03:53:02;;;;;;;5.78;2.72;;;;;;;2.59;61.47;96821.08;1798046;78;21132;-76
2020/12/08 03:55:33;;;;;;;3.80;2.20;;;;;;;2.62;61.58;96817.47;1796133;78;21106;-84
2020/12/08 03:58:01;;;;;;;3.92;2.70;;;;;;;2.64;61.54;96815.16;1801610;77;21228;-83
2020/12/08 04:00:28;;;;;;;3.02;1.90;;;;;;;2.63;61.49;96823.88;1842610;77;21677;-88
2020/12/08 04:02:56;;;;;;;4.28;2.50;;;;;;;2.61;61.61;96823.59;1828520;78;21121;-85
2020/12/08 04:05:27;;;;;;;3.37;2.67;;;;;;;2.64;61.79;96833.84;1820184;78;21288;-78
2020/12/08 04:07:55;;;;;;;3.92;2.60;;;;;;;2.67;61.94;96834.97;1798772;80;21259;-77
2020/12/08 04:10:28;;;;;;;2.47;1.60;;;;;;;2.67;61.98;96833.66;1806343;78;21216;-76
2020/12/08 04:12:58;;;;;;;3.80;2.22;;;;;;;2.66;62.08;96831.98;1821355;78;21105;-77
2020/12/08 04:15:29;;;;;;;2.92;2.15;;;;;;;2.59;62.34;96831.92;1798251;80;21259;-78
2020/12/08 04:17:58;;;;;;;3.65;2.40;;;;;;;2.58;63.44;96836.75;1761536;80;21559;-80
2020/12/08 04:20:27;;;;;;;3.85;2.55;;;;;;;2.58;63.08;96826.34;1712783;82;21127;-80
2020/12/08 04:22:54;;;;;;;3.50;2.60;;;;;;;2.62;62.95;96827.88;1742096;81;21281;-78
2020/12/08 04:25:22;;;;;;;4.87;2.60;;;;;;;2.66;62.86;96834.58;1743122;82;21273;-77
2020/12/08 04:27:52;;;;;;;6.35;2.62;;;;;;;2.65;62.77;96838.10;1741797;81;21202;-87
2020/12/08 04:30:19;;;;;;;4.85;2.67;;;;;;;2.62;62.59;96838.28;1741211;82;21148;-90
2020/12/08 04:32:49;;;;;;;4.60;2.60;;;;;;;2.63;62.96;96837.36;1764163;81;21274;-80
2020/12/08 04:35:17;;;;;;;3.85;2.58;;;;;;;2.62;62.95;96837.81;1773621;81;21289;-86
2020/12/08 04:37:44;;;;;;;2.85;1.85;;;;;;;2.57;63.14;96837.22;1729879;82;21222;-77
2020/12/08 04:40:13;;;;;;;5.97;2.72;;;;;;;2.54;63.51;96843.88;1743581;82;21278;-76
2020/12/08 04:42:49;;;;;;;4.90;3.00;;;;;;;2.55;63.61;96842.13;1741752;81;21688;-80
2020/12/08 04:45:20;;;;;;;7.17;3.33;;;;;;;2.60;63.88;96842.72;1744049;81;21308;-79
2020/12/08 04:48:08;;;;;;;5.47;3.27;;;;;;;2.60;63.50;96851.35;1742144;81;21149;-83
2020/12/08 04:50:35;;;;;;;7.58;3.67;;;;;;;2.59;64.08;96843.64;1744723;81;21141;-81
2020/12/08 04:53:08;;;;;;;6.05;3.52;;;;;;;2.65;64.06;96847.20;1749064;81;21080;-79
2020/12/08 04:55:35;;;;;;;7.22;3.98;;;;;;;2.67;64.30;96851.88;1745333;82;21140;-87
2020/12/08 04:58:03;;;;;;;6.47;4.30;;;;;;;2.68;64.76;96854.05;1769955;81;21136;-77
2020/12/08 05:00:42;;;;;;;6.75;4.22;;;;;;;2.63;65.17;96852.98;1748266;81;21763;-77
2020/12/08 05:03:12;;;;;;;4.72;3.65;;;;;;;2.61;65.74;96846.53;1765583;81;21129;-86
2020/12/08 05:05:43;;;;;;;4.90;2.98;;;;;;;2.60;65.81;96850.53;1741423;82;21159;-84
2020/12/08 05:08:14;;;;;;;8.53;3.60;;;;;;;2.55;65.16;96853.84;1750508;81;21156;-89
2020/12/08 05:10:48;;;;;;;5.35;3.70;;;;;;;2.49;65.79;96858.42;1751339;81;21688;-91
2020/12/08 05:13:26;;;;;;;4.65;3.45;;;;;;;2.41;66.07;96854.08;1763414;81;21189;-88
2020/12/08 05:16:07;;;;;;;6.78;3.98;;;;;;;2.31;66.49;96862.83;1757379;81;21231;-86
2020/12/08 05:18:36;;;;;;;7.92;3.25;;;;;;;2.19;68.58;96864.73;1743023;82;21162;-86
2020/12/08 05:21:13;;;;;;;3.77;2.52;;;;;;;2.13;69.26;96862.45;1750201;81;21251;-78
2020/12/08 05:23:45;;;;;;;3.92;3.05;;;;;;;2.09;68.36;96863.52;1746282;82;21160;-78
2020/12/08 05:26:18;;;;;;;4.25;3.05;;;;;;;1.98;68.30;96866.66;1729381;81;21241;-87
2020/12/08 05:28:49;;;;;;;3.75;3.27;;;;;;;1.94;69.19;96870.30;1745276;82;21145;-79
2020/12/08 05:31:22;;;;;;;5.28;3.70;;;;;;;1.89;71.57;96867.11;1756932;81;21150;-78
2020/12/08 05:33:56;;;;;;;4.40;2.33;;;;;;;1.87;69.42;96869.31;1754332;81;21133;-76
2020/12/08 05:36:27;;;;;;;5.25;3.80;;;;;;;1.82;70.10;96873.88;1745868;81;21284;-76
2020/12/08 05:39:01;;;;;;;4.17;3.08;;;;;;;1.79;73.14;96880.55;1731254;82;21151;-75
2020/12/08 05:41:31;;;;;;;4.50;2.70;;;;;;;1.79;72.41;96877.95;1734940;81;21114;-79
2020/12/08 05:44:05;;;;;;;4.60;3.72;;;;;;;1.80;71.33;96881.38;1730385;82;21643;-76
2020/12/08 05:46:39;;;;;;;4.28;3.02;;;;;;;1.68;71.87;96888.02;1741966;81;21183;-87
2020/12/08 05:49:16;;;;;;;3.92;2.50;;;;;;;1.64;71.35;96886.02;1805250;79;21430;-76
2020/12/08 05:51:55;;;;;;;3.95;3.15;;;;;;;1.61;71.76;96889.23;1798438;79;21283;-78
2020/12/08 05:54:28;;;;;;;5.40;3.42;;;;;;;1.60;71.50;96894.87;1793005;79;21132;-78
2020/12/08 05:57:13;;;;;;;4.95;4.05;;;;;;;1.59;73.67;96898.84;1786763;79;21252;-75
2020/12/08 05:59:54;;;;;;;4.75;3.67;;;;;;;1.52;73.11;96899.14;1793603;79;21249;-76
2020/12/08 06:02:32;;;;;;;6.72;3.65;;;;;;;1.49;73.73;96904.47;1820466;78;21246;-76
2020/12/08 06:05:02;;;;;;;5.60;3.87;;;;;;;1.52;73.55;96904.34;1792518;79;21165;-84
2020/12/08 06:07:32;;;;;;;5.60;3.58;;;;;;;1.55;73.69;96911.14;1811912;78;21177;-76
2020/12/08 06:10:09;;;;;;;4.22;2.87;;;;;;;1.59;73.64;96911.36;1805033;79;21240;-87
2020/12/08 06:12:38;;;;;;;5.95;3.67;;;;;;;1.51;76.61;96916.94;1814313;78;21216;-76
2020/12/08 06:15:25;;;;;;;7.87;4.80;;;;;;;1.40;74.85;96923.91;1803810;79;21259;-82
2020/12/08 06:18:02;;;;;;;8.20;4.97;;;;;;;1.33;74.42;96922.52;1791532;77;21285;-80
2020/12/08 06:20:29;;;;;;;6.83;2.77;;;;;;;1.33;75.33;96930.78;1798984;79;21195;-84
2020/12/08 06:23:09;;;;;;;4.25;2.95;;;;;;;1.36;75.36;96933.22;1797788;79;21248;-80
2020/12/08 06:25:38;;;;;;;3.60;2.33;;;;;;;1.32;75.61;96937.71;1786875;79;21266;-78
2020/12/08 06:28:07;;;;;;;5.87;2.27;;;;;;;1.31;76.55;96932.59;1742885;80;21741;-80
2020/12/08 06:30:38;;;;;;;3.50;2.45;;;;;;;1.24;76.29;96934.63;1756947;81;21316;-82
2020/12/08 06:33:06;;;;;;;2.90;2.12;;;;;;;1.24;75.67;96938.08;1819587;77;21122;-80
2020/12/08 06:35:34;;;;;;;5.05;2.10;;;;;;;1.28;75.90;96936.19;1811531;78;21094;-84
2020/12/08 06:38:11;;;;;;;2.35;1.75;;;;;;;1.28;75.74;96946.58;1777127;79;21142;-77
2020/12/08 06:40:43;;;;;;;2.77;1.75;;;;;;;1.28;76.07;96943.11;1789380;77;21140;-83
2020/12/08 06:43:10;;;;;;;3.85;2.80;;;;;;;1.28;76.09;96941.81;1804747;77;21597;-85
2020/12/08 06:45:38;;;;;;;4.45;2.75;;;;;;;1.23;75.97;96943.33;1795862;79;21145;-79
2020/12/08 06:48:17;;;;;;;5.05;2.72;;;;;;;1.17;77.98;96944.44;1798824;79;21109;-80
2020/12/08 06:50:44;;;;;;;2.75;1.95;;;;;;;1.23;76.36;96941.59;1804362;79;21605;-79
2020/12/08 06:53:12;;;;;;;2.60;2.02;;;;;;;1.33;76.61;96943.77;1789256;77;21908;-75
2020/12/08 06:55:47;;;;;;;3.20;2.12;;;;;;;1.39;75.95;96951.27;1787068;79;21160;-77
2020/12/08 06:58:17;;;;;;;2.85;2.10;;;;;;;1.34;75.87;96949.35;1760485;79;21129;-75
2020/12/08 07:00:45;;;;;;;4.28;2.50;;;;;;;1.35;76.51;96953.61;1790733;77;21160;-75
2020/12/08 07:03:18;;;;;;;3.12;2.10;;;;;;;1.38;75.49;96952.17;1809827;79;21149;-79
2020/12/08 07:05:46;;;;;;;3.90;2.35;;;;;;;1.43;76.15;96957.16;1802031;79;21149;-77
2020/12/08 07:08:15;;;;;;;3.70;1.75;;;;;;;1.40;76.47;96962.88;1786556;80;21114;-77
2020/12/08 07:10:43;;;;;;;4.62;2.52;;;;;;;1.42;76.07;96957.63;1799777;79;21180;-77
2020/12/08 07:13:16;;;;;;;2.87;2.02;;;;;;;1.39;75.82;96957.77;1813011;77;21138;-76
2020/12/08 07:15:46;;;;;;;2.67;1.70;;;;;;;1.43;75.92;96959.77;1819022;79;21137;-77
2020/12/08 07:18:13;;;;;;;5.60;2.30;;;;;;;1.36;77.07;96961.78;1822392;79;21118;-75
2020/12/08 07:20:42;;;;;;;4.90;2.70;;;;;;;1.31;76.32;96956.80;1811351;79;21601;-76
2020/12/08 07:23:13;;;;;;;4.00;2.27;;;;;;;1.31;75.78;96964.59;1818532;79;21105;-78
2020/12/08 07:25:43;;;;;;;4.35;2.60;;;;;;;1.36;75.77;96961.34;1822344;78;21149;-76
2020/12/08 07:28:11;;;;;;;4.75;3.35;;;;;;;1.39;76.17;96963.78;1765247;79;21553;-77
2020/12/08 07:30:38;;;;;;;5.95;3.40;;;;;;;1.43;76.50;96961.06;1736479;82;21160;-76
2020/12/08 07:33:14;;;;;;;6.92;2.50;;;;;;;1.50;76.40;96968.52;1766969;81;21144;-75
2020/12/08 07:35:45;;;;;;;5.12;3.10;;;;;;;1.61;75.63;96969.77;1756867;80;21166;-77
2020/12/08 07:38:17;;;;;;;4.58;2.92;;;;;;;1.58;75.81;96959.05;1787539;79;21146;-75
2020/12/08 07:40:45;;;;;;;5.45;2.95;;;;;;;1.62;75.46;96963.67;1791728;79;21553;-77
2020/12/08 07:43:16;;;;;;;5.83;3.30;;;;;;;1.68;75.02;96963.38;1733701;83;21151;-77
2020/12/08 07:45:46;;;;;;;3.55;1.95;;;;;;;1.69;74.92;96963.77;1812449;79;21140;-76
2020/12/08 07:48:19;;;;;;;6.58;3.22;;;;;;;1.69;75.13;96958.09;1739216;82;21584;-77
2020/12/08 07:50:49;;;;;;;7.55;3.40;;;;;;;1.69;75.60;96957.27;1794445;79;21262;-77
2020/12/08 07:53:19;;;;;;;6.35;2.70;;;;;;;1.80;75.67;96964.55;1786223;79;21187;-77
2020/12/08 07:55:47;;;;;;;6.83;2.60;;;;;;;1.89;75.43;96962.81;1751099;81;21158;-75
2020/12/08 07:58:14;;;;;;;8.98;3.35;;;;;;;1.92;75.18;96960.52;1757925;81;21159;-78
2020/12/08 08:00:42;;;;;;;8.78;4.00;;;;;;;1.98;75.02;96962.38;1757705;82;21175;-77
2020/12/08 08:03:10;;;;;;;8.30;3.60;;;;;;;1.99;75.34;96960.16;1772657;80;21149;-76
2020/12/08 08:05:37;;;;;;;6.37;3.87;;;;;;;2.10;75.12;96957.51;1789416;80;21308;-77
2020/12/08 08:08:04;;;;;;;8.55;3.58;;;;;;;2.08;75.41;96959.33;1770807;80;21550;-76
2020/12/08 08:10:32;;;;;;;4.78;2.67;;;;;;;2.08;74.63;96952.39;1758085;82;21185;-77
2020/12/08 08:13:00;;;;;;;4.22;2.83;;;;;;;2.02;75.32;96960.03;1785055;80;21153;-76
2020/12/08 08:15:28;;;;;;;4.47;2.58;;;;;;;1.97;75.32;96954.19;1789281;80;21130;-76
2020/12/08 08:17:56;;;;;;;4.87;2.35;;;;;;;2.00;75.19;96963.59;1789607;80;21149;-78
2020/12/08 08:20:24;;;;;;;4.35;2.85;;;;;;;2.08;75.86;96956.73;1768445;80;21598;-77
2020/12/08 08:22:55;;;;;;;6.87;3.30;;;;;;;2.13;75.43;96959.97;1757855;82;21263;-78
2020/12/08 08:25:22;;;;;;;5.25;3.10;;;;;;;2.16;75.26;96968.46;1758623;82;21169;-75
2020/12/08 08:27:50;;;;;;;4.37;2.27;;;;;;;2.22;75.55;96964.72;1763308;80;21173;-76
2020/12/08 08:30:17;;;;;;;5.03;2.98;;;;;;;2.26;75.70;96978.42;1770015;81;21143;-78
2020/12/08 08:32:45;;;;;;;4.15;2.30;;;;;;;2.16;76.11;96974.97;1769919;81;21124;-75
2020/12/08 08:35:12;;;;;;;4.60;2.60;;;;;;;2.13;75.59;96973.80;1770067;81;21155;-75
2020/12/08 08:37:40;;;;;;;4.72;2.75;;;;;;;2.16;75.52;96973.66;1770004;81;21592;-76
2020/12/08 08:40:07;;;;;;;3.72;2.17;;;;;;;2.01;75.39;96960.94;1741791;81;21144;-76
2020/12/08 08:42:35;;;;;;;4.15;2.77;;;;;;;2.08;75.48;96971.89;1770154;81;21540;-79
2020/12/08 08:45:04;;;;;;;2.62;1.60;;;;;;;2.05;76.30;96968.13;1767800;81;21302;-77
2020/12/08 08:47:33;;;;;;;3.15;1.72;;;;;;;2.09;76.07;96973.55;1711580;83;21203;-79
2020/12/08 08:50:05;;;;;;;4.97;2.67;;;;;;;2.14;75.73;96966.39;1734365;83;21301;-76
2020/12/08 08:52:33;;;;;;;3.58;2.72;;;;;;;2.15;75.93;96967.22;1746475;80;21186;-78
2020/12/08 08:55:00;;;;;;;4.70;2.40;;;;;;;2.17;76.01;96970.15;1847811;77;21141;-78
2020/12/08 08:57:28;;;;;;;5.83;2.65;;;;;;;2.19;75.84;96968.77;1756750;80;21179;-77
2020/12/08 08:59:55;;;;;;;2.52;1.65;;;;;;;2.19;76.13;96976.09;1783884;80;21125;-78
2020/12/08 09:02:23;;;;;;;3.95;2.83;;;;;;;2.19;75.99;96970.06;1765938;81;21313;-78
2020/12/08 09:04:54;;;;;;;4.67;3.08;;;;;;;2.13;77.03;96971.20;1721024;82;21127;-77
2020/12/08 09:07:22;;;;;;;7.00;3.52;;;;;;;2.16;76.24;96968.46;1726459;83;21208;-77
2020/12/08 09:09:50;;;;;;;3.95;3.22;;;;;;;2.16;76.06;96969.77;1749834;82;21579;-79
2020/12/08 09:12:18;;;;;;;3.70;2.33;;;;;;;2.23;76.21;96968.98;1749437;82;21563;-79
2020/12/08 09:14:47;;;;;;;6.53;3.95;;;;;;;2.30;76.18;96969.09;1786797;80;21158;-78
2020/12/08 09:17:15;;;;;;;4.30;2.80;;;;;;;2.33;76.02;96962.41;1770704;80;21256;-78
2020/12/08 09:19:44;;;;;;;6.75;3.00;;;;;;;2.38;76.14;96963.48;1760464;80;21106;-79
2020/12/08 09:22:11;;;;;;;2.83;1.90;;;;;;;2.41;75.98;96965.95;1819384;79;21689;-80
2020/12/08 09:24:39;;;;;;;3.27;2.35;;;;;;;2.43;75.89;96964.12;1822522;79;21137;-79
2020/12/08 09:27:06;;;;;;;4.65;2.98;;;;;;;2.47;76.00;96959.60;1812677;79;21164;-80
2020/12/08 09:29:35;;;;;;;3.08;2.02;;;;;;;2.50;75.95;96953.78;1786990;80;21144;-82
2020/12/08 09:32:03;;;;;;;3.87;2.30;;;;;;;2.57;75.86;96965.17;1786483;80;21184;-78
2020/12/08 09:34:31;;;;;;;4.20;2.80;;;;;;;2.55;75.59;96955.33;1787178;80;21133;-80
2020/12/08 09:37:00;;;;;;;6.40;3.60;;;;;;;2.54;75.91;96960.14;1790052;79;21515;-78
2020/12/08 09:39:29;;;;;;;3.87;2.40;;;;;;;2.52;75.93;96955.00;1811074;79;21550;-79
2020/12/08 09:41:57;;;;;;;4.33;2.45;;;;;;;2.63;75.66;96959.69;1786752;80;21578;-76
2020/12/08 09:44:25;;;;;;;5.05;1.62;;;;;;;2.73;75.36;96958.30;1807459;79;21166;-82
2020/12/08 09:46:54;;;;;;;2.47;1.62;;;;;;;2.81;74.93;96959.19;1820376;79;21149;-77
2020/12/08 09:49:23;;;;;;;2.35;1.60;;;;;;;2.88;74.46;96950.14;1819130;78;21176;-79
2020/12/08 09:51:56;;;;;;;4.05;2.27;;;;;;;2.94;74.20;96948.54;1788631;79;21673;-84
2020/12/08 09:54:24;;;;;;;4.28;2.47;;;;;;;3.00;74.30;96955.64;1817954;78;21145;-81
2020/12/08 09:56:52;;;;;;;3.47;2.52;;;;;;;3.10;73.66;96954.23;1795745;78;21161;-76
2020/12/08 09:59:22;;;;;;;2.80;1.95;;;;;;;3.17;74.24;96952.16;1787532;79;21161;-84
2020/12/08 10:01:57;;;;;;;4.65;1.95;;;;;;;3.26;74.15;96946.47;1735191;80;21168;-79
2020/12/08 10:04:24;;;;;;;4.92;2.98;;;;;;;3.39;73.94;96939.66;1786921;80;21133;-78
2020/12/08 10:06:52;;;;;;;4.15;2.90;;;;;;;3.44;73.94;96938.10;1787311;80;21190;-84
2020/12/08 10:09:19;;;;;;;5.95;2.25;;;;;;;3.52;72.99;96946.82;1787237;80;21146;-80
2020/12/08 10:11:46;;;;;;;4.22;2.60;;;;;;;3.58;73.20;96947.78;1751118;80;21165;-84
2020/12/08 10:14:14;;;;;;;3.80;1.80;;;;;;;3.64;72.78;96951.82;1726837;83;21163;-82
2020/12/08 10:16:41;;;;;;;5.90;2.92;;;;;;;3.66;72.66;96943.02;1749690;82;21150;-87
2020/12/08 10:19:10;;;;;;;4.80;2.90;;;;;;;3.63;72.73;96951.44;1738111;82;21132;-85
2020/12/08 10:21:40;;;;;;;18.00;3.72;;;;;;;3.67;72.48;96945.97;1749935;82;21122;-78
2020/12/08 10:24:08;;;;;;;3.55;2.42;;;;;;;3.77;71.99;96949.38;1749779;82;21137;-81
2020/12/08 10:26:36;;;;;;;6.45;2.45;;;;;;;3.79;71.33;96950.14;1749619;82;21161;-81
2020/12/08 10:29:03;;;;;;;4.42;2.62;;;;;;;3.87;71.93;96942.73;1750898;80;21157;-81
2020/12/08 10:31:31;;;;;;;3.37;2.67;;;;;;;3.93;71.55;96940.25;1750393;82;21296;-87
2020/12/08 10:33:59;;;;;;;4.72;3.22;;;;;;;4.00;70.40;96942.88;1801635;79;21139;-89
2020/12/08 10:36:29;;;;;;;4.45;3.17;;;;;;;3.94;70.70;96940.19;1780010;80;21254;-84
2020/12/08 10:38:56;;;;;;;5.80;3.30;;;;;;;3.94;70.13;96940.19;1773914;81;21271;-83
2020/12/08 10:41:26;;;;;;;5.40;3.35;;;;;;;4.03;71.23;96930.98;1773528;81;21287;-85
2020/12/08 10:43:54;;;;;;;5.05;2.87;;;;;;;4.13;71.33;96933.93;1739934;82;21170;-82
2020/12/08 10:46:22;;;;;;;4.95;2.72;;;;;;;4.11;71.26;96929.25;1726958;83;21168;-84
2020/12/08 10:48:52;;;;;;;4.87;3.00;;;;;;;4.13;71.04;96930.02;1725440;83;21187;-86
2020/12/08 10:51:23;;;;;;;5.30;2.70;;;;;;;4.09;69.89;96925.41;1608887;89;21291;-87
2020/12/08 10:53:51;;;;;;;3.10;2.00;;;;;;;4.00;69.89;96926.79;1640635;87;21175;-86
2020/12/08 10:56:23;;;;;;;4.00;2.70;;;;;;;3.90;69.82;96934.27;1640445;87;21683;-84
2020/12/08 10:58:53;;;;;;;4.47;3.12;;;;;;;3.70;69.24;96922.83;1640159;87;21194;-84
2020/12/08 11:01:25;;;;;;;4.47;2.95;;;;;;;3.71;69.94;96922.73;1638502;86;21194;-84
2020/12/08 11:03:59;;;;;;;5.00;3.00;;;;;;;3.84;69.80;96925.98;1624732;88;21202;-85
2020/12/08 11:06:31;;;;;;;4.62;3.27;;;;;;;3.98;70.14;96921.28;1603248;88;21223;-86
2020/12/08 11:09:00;;;;;;;4.05;3.30;;;;;;;4.06;69.76;96913.39;1674442;80;21169;-84
2020/12/08 11:11:32;;;;;;;4.20;3.10;;;;;;;4.04;69.30;96919.15;1771674;81;21266;-82
2020/12/08 11:14:00;;;;;;;10.98;3.65;;;;;;;4.08;69.42;96920.29;1771992;81;21112;-85
2020/12/08 11:16:30;;;;;;;8.28;3.40;;;;;;;4.05;68.53;96917.40;1741709;82;21589;-80
2020/12/08 11:18:57;;;;;;;8.05;4.47;;;;;;;3.97;68.89;96912.61;1735383;81;21607;-77
2020/12/08 11:21:33;;;;;;;5.65;3.30;;;;;;;4.04;69.26;96906.58;1752116;81;21170;-78
2020/12/08 11:24:02;;;;;;;4.97;3.83;;;;;;;4.10;68.70;96914.05;1739641;82;21167;-78
2020/12/08 11:26:31;;;;;;;4.00;2.65;;;;;;;4.16;68.93;96908.50;1710552;82;21163;-81
2020/12/08 11:28:59;;;;;;;6.90;4.28;;;;;;;4.09;67.67;96902.41;1760655;80;21196;-81
2020/12/08 11:31:27;;;;;;;5.42;3.92;;;;;;;4.02;68.73;96904.08;1745072;81;21155;-79
2020/12/08 11:33:54;;;;;;;8.58;3.87;;;;;;;4.04;68.78;96905.28;1763473;79;21135;-85
2020/12/08 11:36:26;;;;;;;6.85;4.30;;;;;;;4.08;68.24;96903.33;1744778;81;21168;-71
2020/12/08 11:38:53;;;;;;;5.62;3.90;;;;;;;4.03;68.65;96907.06;1764909;81;21542;-74
2020/12/08 11:41:20;;;;;;;8.40;4.55;;;;;;;3.95;68.61;96906.63;1747176;80;21205;-70
2020/12/08 11:43:50;;;;;;;6.40;4.28;;;;;;;3.97;69.23;96901.34;1750930;81;21163;-73
2020/12/08 11:46:18;;;;;;;6.15;3.85;;;;;;;4.09;69.13;96898.50;1755183;80;21171;-68
2020/12/08 11:48:47;;;;;;;5.03;3.50;;;;;;;4.17;69.05;96900.20;1750447;80;21177;-71
2020/12/08 11:51:14;;;;;;;6.42;4.40;;;;;;;4.16;68.88;96900.67;1755046;79;21597;-71
2020/12/08 11:53:41;;;;;;;4.33;3.00;;;;;;;4.17;69.01;96898.89;1727398;81;21188;-68
2020/12/08 11:56:11;;;;;;;6.78;4.80;;;;;;;4.19;68.78;96896.56;1750924;80;21112;-86